Saint Francis, KS

8:37 AM CST on December 11, 2016 (GMT -0600)
Cheyenne County Municipal | | Change Station

Elev 3412 ft 39.76 °N, 101.80 °W | Updated 22 minutes ago

Overcast
Overcast
31 °F
Feels Like 20 °F
N
15
Wind Variable Wind from NNW

Today
High -- | Low -- °F
--% Chance of Precip.
Yesterday
High -- | Low -- °F
Precip. -- in
Pressure 29.87 in
Visibility 10.0 miles
Clouds Scattered Clouds 5000 ft
Mostly Cloudy 7500 ft
Overcast 11000 ft
Windchill 20 °F
Dew Point 23 °F
Humidity 73%
Rainfall 0.00 in
Snow Depth Not available.
7:58 AM 5:22 PM
Waxing Gibbous, 92% visible
METAR KSYF 111415Z AUTO 34013KT 10SM SCT050 BKN075 OVC110 00/M05 A2987 RMK AO2 T10051048
Pressure 29.87 in
Visibility 10.0 miles
Clouds Scattered Clouds 5000 ft
Mostly Cloudy 7500 ft
Overcast 11000 ft
Windchill 20 °F
Dew Point 23 °F
Humidity 73%
Rainfall 0.00 in
Snow Depth Not available.
7:58 AM 5:22 PM
Waxing Gibbous, 92% visible
METAR KSYF 111415Z AUTO 34013KT 10SM SCT050 BKN075 OVC110 00/M05 A2987 RMK AO2 T10051048

10-Day Weather Forecast

Almanac

Astronomy

Dec. 11, 2016 Rise Set
Actual Time
Civil Twilight
Nautical Twilight
Astronomical Twilight
Moon
Length of Visible Light
Length of Day
Tomorrow will be .
, % of the Moon is Illuminated

Today's Extremes

State Highs State Lows

Community

WunderPhotos

Upload Photos

1,956,719 photos uploaded!

WunderBlog® & News

Nearby

Air Quality

  Air Quality AQ Index Pollutant
Not available.

Snow Depth

Station Depth Elevation

Earthquake Activity

City Distance Mag. Time & Date
Minimum magnitude displayed is 2.5.

Coastal Water Temperatures

Place Temperature

Stations

Nearby Weather Stations

Station Location Temp. Windchill Dew Point Humidity Wind Precip. Elev Updated Type
                   

Watches & Warnings

There are currently no watches in effect.